createdAt,value
2023-05-13T00:00:38.570Z,3.13
2023-05-13T00:06:18.346Z,2.95
2023-05-13T00:08:45.269Z,3.33
2023-05-13T00:11:12.155Z,2.85
2023-05-13T00:14:10.459Z,2.80
2023-05-13T00:17:07.240Z,3.03
2023-05-13T00:22:45.244Z,2.83
2023-05-13T00:31:53.603Z,2.85
2023-05-13T00:41:05.489Z,2.60
2023-05-13T00:52:58.944Z,3.05
2023-05-13T00:59:31.699Z,2.67
2023-05-13T01:06:42.572Z,3.00
2023-05-13T01:09:46.826Z,3.05
2023-05-13T01:20:47.882Z,3.15
2023-05-13T01:23:14.611Z,3.17
2023-05-13T01:29:23.383Z,2.97
2023-05-13T01:52:44.352Z,3.60
2023-05-13T02:08:30.870Z,4.20
2023-05-13T02:25:19.239Z,3.43
2023-05-13T02:28:13.901Z,4.07
2023-05-13T02:33:27.782Z,4.30
2023-05-13T02:39:35.014Z,4.40
2023-05-13T02:42:05.654Z,3.90
2023-05-13T02:44:34.797Z,4.18
2023-05-13T02:53:02.646Z,4.47
2023-05-13T02:55:58.559Z,5.15
2023-05-13T02:58:28.398Z,4.40
2023-05-13T03:00:55.099Z,4.88
2023-05-13T03:03:21.936Z,4.68
2023-05-13T03:05:51.738Z,4.57
2023-05-13T03:08:18.491Z,4.45
2023-05-13T03:10:48.609Z,4.50
2023-05-13T03:13:15.406Z,4.65
2023-05-13T03:16:08.414Z,4.38
2023-05-13T03:18:38.862Z,4.77
2023-05-13T03:24:16.908Z,4.95
2023-05-13T03:26:46.676Z,4.82
2023-05-13T03:29:13.642Z,5.15
2023-05-13T03:31:40.626Z,5.10
2023-05-13T03:34:07.632Z,4.65
2023-05-13T03:36:44.927Z,5.18
2023-05-13T03:39:12.906Z,5.45
2023-05-13T03:45:06.501Z,5.77
2023-05-13T03:47:37.506Z,5.50
2023-05-13T03:52:59.716Z,5.35
2023-05-13T03:55:53.498Z,5.20
2023-05-13T03:58:46.529Z,5.70
2023-05-13T04:01:38.277Z,5.63
2023-05-13T04:04:30.628Z,5.75
2023-05-13T04:07:01.666Z,5.47
2023-05-13T04:09:31.672Z,6.13
2023-05-13T04:12:04.043Z,6.37
2023-05-13T04:14:59.538Z,6.40
2023-05-13T04:20:17.326Z,5.82
2023-05-13T04:23:17.940Z,6.05
2023-05-13T04:31:19.255Z,6.35
2023-05-13T04:33:48.559Z,7.05
2023-05-13T04:36:38.637Z,6.13
2023-05-13T04:39:26.686Z,5.90
2023-05-13T04:42:19.040Z,5.88
2023-05-13T04:44:49.104Z,6.40
2023-05-13T04:52:56.993Z,6.20
2023-05-13T04:55:27.837Z,5.72
2023-05-13T04:57:54.964Z,6.50
2023-05-13T05:00:21.885Z,6.30
2023-05-13T05:03:00.273Z,6.32
2023-05-13T05:09:40.356Z,6.10
2023-05-13T05:23:13.294Z,5.50
2023-05-13T05:26:12.446Z,6.00
2023-05-13T05:35:22.084Z,6.35
2023-05-13T05:42:30.864Z,6.18
2023-05-13T06:05:39.918Z,6.30
2023-05-13T06:11:51.505Z,6.17
2023-05-13T06:48:08.853Z,7.97
2023-05-13T07:37:24.927Z,5.57
2023-05-13T07:55:32.426Z,5.37
2023-05-13T08:17:22.708Z,5.90
2023-05-13T08:22:52.887Z,5.60
2023-05-13T08:25:49.631Z,5.15
2023-05-13T08:29:03.708Z,5.37
2023-05-13T08:51:11.889Z,5.25
2023-05-13T08:53:53.293Z,5.85
2023-05-13T08:56:19.993Z,5.70
2023-05-13T09:04:48.609Z,5.72
2023-05-13T09:47:44.020Z,5.13
2023-05-13T10:15:08.179Z,5.10
2023-05-13T10:17:36.191Z,4.90
2023-05-13T10:20:05.108Z,6.00
2023-05-13T10:22:34.962Z,5.72
2023-05-13T10:25:03.198Z,6.63
2023-05-13T10:27:32.768Z,6.25
2023-05-13T10:30:03.413Z,5.57
2023-05-13T10:36:07.981Z,5.10
2023-05-13T10:45:32.033Z,5.38
2023-05-13T10:48:06.750Z,5.50
2023-05-13T10:51:27.420Z,5.57
2023-05-13T10:53:58.614Z,5.10
2023-05-13T10:56:28.403Z,5.10
2023-05-13T10:59:54.319Z,4.72
2023-05-13T11:02:25.102Z,4.23
2023-05-13T11:05:18.858Z,4.53
2023-05-13T11:11:22.612Z,4.60
2023-05-13T11:13:56.690Z,3.83
2023-05-13T11:17:04.791Z,4.80
2023-05-13T11:20:25.959Z,4.28
2023-05-13T11:22:58.847Z,3.75
2023-05-13T11:25:34.324Z,4.13
2023-05-13T11:34:45.387Z,3.70
2023-05-13T11:40:12.210Z,3.70
2023-05-13T11:43:43.010Z,3.80
2023-05-13T11:49:56.207Z,3.92
2023-05-13T11:58:36.580Z,3.13
2023-05-13T12:01:29.356Z,3.10
2023-05-13T12:09:57.501Z,3.00
2023-05-13T12:12:25.096Z,2.72
2023-05-13T12:14:55.117Z,2.93
2023-05-13T12:17:34.860Z,2.67
2023-05-13T12:20:13.294Z,2.80
2023-05-13T12:23:06.018Z,2.58
2023-05-13T12:25:46.180Z,2.83
2023-05-13T12:28:14.205Z,3.00
2023-05-13T12:31:14.106Z,2.80
2023-05-13T12:33:44.564Z,2.80
2023-05-13T12:36:32.513Z,2.42
2023-05-13T12:39:02.657Z,2.67
2023-05-13T12:41:52.362Z,2.27
2023-05-13T12:44:29.442Z,2.70
2023-05-13T13:00:49.120Z,2.53
2023-05-13T13:03:18.364Z,2.60
2023-05-13T13:08:43.824Z,2.50
2023-05-13T13:11:21.477Z,2.93
2023-05-13T13:17:10.462Z,2.47
2023-05-13T13:19:37.799Z,2.75
2023-05-13T13:24:51.007Z,3.07
2023-05-13T13:27:42.534Z,3.22
2023-05-13T13:33:23.322Z,2.80
2023-05-13T13:37:57.064Z,3.05
2023-05-13T13:44:29.637Z,2.63
2023-05-13T13:52:45.773Z,2.30
2023-05-13T13:56:05.056Z,2.35
2023-05-13T14:02:02.685Z,2.53
2023-05-13T14:04:34.732Z,2.33
2023-05-13T14:07:32.174Z,2.13
2023-05-13T14:26:00.451Z,2.30
2023-05-13T14:28:48.446Z,2.88
2023-05-13T14:31:37.673Z,2.33
2023-05-13T14:34:06.348Z,2.15
2023-05-13T14:37:26.887Z,2.47
2023-05-13T14:40:06.513Z,2.38
2023-05-13T14:42:33.971Z,2.20
2023-05-13T14:45:00.779Z,2.22
2023-05-13T14:48:18.391Z,2.40
2023-05-13T14:53:43.814Z,2.58
2023-05-13T14:59:35.068Z,2.20
2023-05-13T15:02:04.635Z,2.38
2023-05-13T15:04:31.336Z,2.10
2023-05-13T15:13:36.983Z,2.20
2023-05-13T15:16:04.324Z,2.20
2023-05-13T15:18:56.192Z,1.97
2023-05-13T15:21:20.652Z,2.10
2023-05-13T15:25:28.065Z,1.83
2023-05-13T15:26:40.472Z,2.20
2023-05-13T15:29:09.958Z,2.05
2023-05-13T15:31:36.674Z,2.10
2023-05-13T15:34:05.529Z,2.30
2023-05-13T15:36:34.741Z,3.42
2023-05-13T15:39:06.331Z,3.17
2023-05-13T15:41:32.985Z,4.13
2023-05-13T15:43:59.772Z,4.03
2023-05-13T15:46:29.173Z,3.92
2023-05-13T15:51:39.029Z,3.40
2023-05-13T15:54:05.897Z,4.18
2023-05-13T15:56:32.572Z,3.83
2023-05-13T15:59:27.690Z,4.30
2023-05-13T16:01:54.599Z,3.65
2023-05-13T16:04:23.858Z,3.83
2023-05-13T16:06:50.777Z,4.05
2023-05-13T16:12:41.202Z,3.75
2023-05-13T16:15:08.405Z,3.35
2023-05-13T16:21:09.475Z,3.47
2023-05-13T16:26:22.367Z,3.08
2023-05-13T16:28:49.025Z,3.50
2023-05-13T16:31:40.035Z,3.80
2023-05-13T16:34:08.164Z,3.38
2023-05-13T16:37:39.093Z,3.70
2023-05-13T16:39:47.450Z,3.40
2023-05-13T16:42:38.208Z,3.80
2023-05-13T16:45:16.864Z,3.92
2023-05-13T16:50:26.638Z,3.70
2023-05-13T16:52:57.016Z,3.45
2023-05-13T16:55:25.940Z,3.75
2023-05-13T16:57:53.994Z,3.80
2023-05-13T17:00:22.212Z,3.80
2023-05-13T17:02:51.657Z,3.47
2023-05-13T17:05:18.709Z,3.55
2023-05-13T17:07:48.391Z,3.40
2023-05-13T17:10:16.211Z,3.33
2023-05-13T17:12:42.821Z,3.20
2023-05-13T17:15:09.761Z,3.10
2023-05-13T17:17:36.646Z,3.47
2023-05-13T17:20:03.551Z,3.63
2023-05-13T17:22:32.712Z,3.90
2023-05-13T17:24:59.394Z,3.65
2023-05-13T17:27:33.571Z,3.73
2023-05-13T17:30:00.208Z,3.65
2023-05-13T17:32:26.858Z,4.40
2023-05-13T17:34:53.442Z,4.40
2023-05-13T17:37:21.613Z,3.95
2023-05-13T17:39:48.186Z,4.17
2023-05-13T17:42:18.626Z,3.90
2023-05-13T17:44:48.517Z,4.25
2023-05-13T17:47:15.318Z,3.80
2023-05-13T17:49:42.041Z,3.60
2023-05-13T17:52:11.952Z,3.70
2023-05-13T17:54:38.618Z,3.45
2023-05-13T17:57:05.944Z,3.58
2023-05-13T17:59:32.623Z,3.70
2023-05-13T18:01:59.401Z,3.53
2023-05-13T18:04:26.071Z,3.97
2023-05-13T18:06:52.676Z,3.72
2023-05-13T18:09:21.157Z,3.42
2023-05-13T18:11:47.690Z,3.53
2023-05-13T18:14:17.126Z,3.67
2023-05-13T18:16:44.061Z,3.60
2023-05-13T18:19:11.177Z,4.25
2023-05-13T18:21:37.828Z,4.18
2023-05-13T18:24:04.823Z,3.72
2023-05-13T18:26:31.454Z,4.03
2023-05-13T18:29:18.337Z,4.07
2023-05-13T18:31:45.110Z,3.42
2023-05-13T18:34:11.729Z,3.63
2023-05-13T18:36:47.517Z,3.70
2023-05-13T18:39:15.599Z,3.30
2023-05-13T18:41:48.463Z,3.53
2023-05-13T18:44:18.212Z,3.75
2023-05-13T18:46:47.175Z,3.65
2023-05-13T18:49:13.923Z,3.75
2023-05-13T18:51:48.036Z,3.33
2023-05-13T18:54:14.775Z,3.20
2023-05-13T18:56:42.460Z,3.83
2023-05-13T18:59:09.160Z,3.50
2023-05-13T19:01:35.925Z,3.25
2023-05-13T19:04:02.725Z,3.80
2023-05-13T19:06:29.384Z,3.60
2023-05-13T19:08:56.030Z,3.53
2023-05-13T19:11:22.806Z,3.58
2023-05-13T19:13:49.393Z,2.83
2023-05-13T19:16:16.126Z,3.38
2023-05-13T19:18:42.863Z,3.43
2023-05-13T19:21:09.606Z,3.42
2023-05-13T19:23:58.858Z,4.15
2023-05-13T19:26:25.623Z,3.75
2023-05-13T19:28:52.519Z,4.15
2023-05-13T19:31:19.129Z,3.80
2023-05-13T19:33:46.489Z,3.88
2023-05-13T19:36:26.318Z,3.83
2023-05-13T19:38:53.692Z,3.83
2023-05-13T19:41:20.838Z,3.63
2023-05-13T19:43:48.501Z,3.77
2023-05-13T19:46:15.537Z,3.70
2023-05-13T19:48:42.149Z,3.58
2023-05-13T19:51:08.848Z,3.60
2023-05-13T19:53:38.710Z,4.10
2023-05-13T19:56:05.435Z,3.60
2023-05-13T19:58:32.525Z,3.80
2023-05-13T20:00:59.299Z,4.07
2023-05-13T20:03:26.069Z,3.80
2023-05-13T20:05:53.939Z,4.25
2023-05-13T20:08:21.325Z,3.60
2023-05-13T20:10:47.915Z,3.85
2023-05-13T20:13:23.369Z,4.47
2023-05-13T20:15:57.431Z,3.92
2023-05-13T20:18:24.132Z,3.75
2023-05-13T20:20:51.635Z,4.20
2023-05-13T20:23:18.290Z,3.78
2023-05-13T20:25:46.962Z,4.53
2023-05-13T20:28:13.534Z,4.20
2023-05-13T20:30:42.893Z,4.50
2023-05-13T20:33:09.519Z,4.97
2023-05-13T20:35:37.039Z,4.95
2023-05-13T20:38:03.704Z,4.82
2023-05-13T20:40:30.336Z,4.55
2023-05-13T20:42:57.279Z,4.75
2023-05-13T20:45:23.976Z,5.00
2023-05-13T20:47:51.083Z,5.05
2023-05-13T20:50:17.812Z,5.50
2023-05-13T20:52:44.450Z,5.07
2023-05-13T20:55:15.505Z,5.47
2023-05-13T21:00:24.826Z,5.70
2023-05-13T21:02:53.213Z,5.40
2023-05-13T21:05:20.073Z,5.57
2023-05-13T21:07:46.859Z,5.45
2023-05-13T21:10:13.534Z,5.57
2023-05-13T21:12:40.213Z,6.03
2023-05-13T21:15:11.078Z,5.47
2023-05-13T21:17:38.577Z,6.20
2023-05-13T21:20:06.037Z,6.05
2023-05-13T21:22:32.708Z,6.23
2023-05-13T21:24:59.330Z,5.80
2023-05-13T21:27:25.961Z,6.07
2023-05-13T21:29:52.548Z,6.75
2023-05-13T21:32:19.206Z,6.38
2023-05-13T21:34:46.913Z,6.20
2023-05-13T21:37:14.384Z,6.75
2023-05-13T21:39:41.431Z,6.60
2023-05-13T21:42:08.271Z,6.28
2023-05-13T21:44:44.046Z,6.80
2023-05-13T21:47:10.695Z,6.40
2023-05-13T21:49:37.296Z,6.82
2023-05-13T21:52:04.097Z,6.75
2023-05-13T21:54:30.685Z,6.68
2023-05-13T21:56:58.370Z,7.00
2023-05-13T21:59:24.925Z,6.53
2023-05-13T22:02:10.080Z,6.30
2023-05-13T22:04:38.944Z,6.60
2023-05-13T22:07:05.783Z,6.90
2023-05-13T22:09:41.174Z,6.53
2023-05-13T22:12:08.216Z,7.00
2023-05-13T22:14:34.835Z,6.90
2023-05-13T22:17:12.337Z,6.70
2023-05-13T22:19:39.043Z,7.13
2023-05-13T22:22:05.930Z,7.00
2023-05-13T22:24:37.392Z,7.03
2023-05-13T22:27:09.731Z,7.60
2023-05-13T22:29:56.893Z,6.97
2023-05-13T22:32:23.790Z,6.82
2023-05-13T22:34:50.825Z,6.45
2023-05-13T22:37:23.659Z,6.80
2023-05-13T22:39:50.315Z,6.82
2023-05-13T22:42:16.925Z,6.60
2023-05-13T22:44:44.624Z,7.28
2023-05-13T22:47:11.288Z,6.68
2023-05-13T22:49:37.939Z,7.33
2023-05-13T22:52:16.758Z,7.25
2023-05-13T22:54:43.364Z,7.13
2023-05-13T22:57:09.961Z,7.22
2023-05-13T22:59:36.586Z,7.50
2023-05-13T23:02:03.352Z,8.03
2023-05-13T23:04:35.510Z,7.20
2023-05-13T23:07:02.372Z,6.90
2023-05-13T23:09:28.941Z,7.30
2023-05-13T23:11:55.632Z,7.63
2023-05-13T23:14:22.287Z,7.70
2023-05-13T23:16:48.943Z,8.05
2023-05-13T23:19:15.707Z,8.10
2023-05-13T23:21:54.489Z,7.28
2023-05-13T23:24:21.181Z,7.97
2023-05-13T23:26:48.657Z,7.83
2023-05-13T23:29:15.343Z,8.18
2023-05-13T23:31:42.046Z,7.63
2023-05-13T23:34:08.705Z,8.00
2023-05-13T23:36:35.400Z,8.48
2023-05-13T23:39:04.768Z,7.87
2023-05-13T23:41:31.432Z,7.90
2023-05-13T23:43:58.034Z,8.18
2023-05-13T23:46:24.772Z,8.02
2023-05-13T23:48:51.391Z,8.02
2023-05-13T23:51:22.789Z,7.63
2023-05-13T23:53:49.591Z,7.72
2023-05-13T23:56:16.248Z,8.25
2023-05-13T23:58:43.371Z,7.90
